sensor_id;sensor_type;location;lat;lon;timestamp;P1;durP1;ratioP1;P2;durP2;ratioP2
14394;SDS011;7282;49.204;10.652;2022-07-23T00:00:22;8.50;;;7.70;;
14394;SDS011;7282;49.204;10.652;2022-07-23T00:02:48;9.03;;;8.23;;
14394;SDS011;7282;49.204;10.652;2022-07-23T00:05:15;8.43;;;7.73;;
14394;SDS011;7282;49.204;10.652;2022-07-23T00:07:42;9.23;;;8.40;;
14394;SDS011;7282;49.204;10.652;2022-07-23T00:10:09;7.93;;;7.33;;
14394;SDS011;7282;49.204;10.652;2022-07-23T00:12:36;8.80;;;8.10;;
14394;SDS011;7282;49.204;10.652;2022-07-23T00:15:03;10.20;;;9.20;;
14394;SDS011;7282;49.204;10.652;2022-07-23T00:17:30;9.17;;;8.37;;
14394;SDS011;7282;49.204;10.652;2022-07-23T00:19:57;10.27;;;9.10;;
14394;SDS011;7282;49.204;10.652;2022-07-23T00:22:24;9.73;;;8.83;;
14394;SDS011;7282;49.204;10.652;2022-07-23T00:24:51;11.77;;;10.50;;
14394;SDS011;7282;49.204;10.652;2022-07-23T00:27:17;11.17;;;9.83;;
14394;SDS011;7282;49.204;10.652;2022-07-23T00:29:44;11.50;;;10.30;;
14394;SDS011;7282;49.204;10.652;2022-07-23T00:32:11;10.57;;;9.77;;
14394;SDS011;7282;49.204;10.652;2022-07-23T00:34:37;10.10;;;9.20;;
14394;SDS011;7282;49.204;10.652;2022-07-23T00:37:04;11.93;;;9.63;;
14394;SDS011;7282;49.204;10.652;2022-07-23T00:39:31;12.53;;;10.70;;
14394;SDS011;7282;49.204;10.652;2022-07-23T00:41:57;12.40;;;11.17;;
14394;SDS011;7282;49.204;10.652;2022-07-23T00:44:25;10.73;;;9.73;;
14394;SDS011;7282;49.204;10.652;2022-07-23T00:46:58;11.43;;;10.43;;
14394;SDS011;7282;49.204;10.652;2022-07-23T00:49:29;10.60;;;9.57;;
14394;SDS011;7282;49.204;10.652;2022-07-23T00:51:56;10.60;;;9.70;;
14394;SDS011;7282;49.204;10.652;2022-07-23T00:54:23;11.17;;;10.07;;
14394;SDS011;7282;49.204;10.652;2022-07-23T00:56:51;10.53;;;9.63;;
14394;SDS011;7282;49.204;10.652;2022-07-23T00:59:17;10.83;;;9.13;;
14394;SDS011;7282;49.204;10.652;2022-07-23T01:01:44;10.30;;;9.33;;
14394;SDS011;7282;49.204;10.652;2022-07-23T01:04:13;10.20;;;9.23;;
14394;SDS011;7282;49.204;10.652;2022-07-23T01:06:41;9.93;;;9.03;;
14394;SDS011;7282;49.204;10.652;2022-07-23T01:09:09;9.70;;;8.70;;
14394;SDS011;7282;49.204;10.652;2022-07-23T01:11:36;12.23;;;9.23;;
14394;SDS011;7282;49.204;10.652;2022-07-23T01:14:13;9.03;;;8.23;;
14394;SDS011;7282;49.204;10.652;2022-07-23T01:16:41;10.60;;;9.50;;
14394;SDS011;7282;49.204;10.652;2022-07-23T01:19:08;9.30;;;8.50;;
14394;SDS011;7282;49.204;10.652;2022-07-23T01:21:36;8.67;;;7.97;;
14394;SDS011;7282;49.204;10.652;2022-07-23T01:24:03;8.33;;;7.67;;
14394;SDS011;7282;49.204;10.652;2022-07-23T01:26:30;9.70;;;8.90;;
14394;SDS011;7282;49.204;10.652;2022-07-23T01:28:56;9.97;;;8.27;;
14394;SDS011;7282;49.204;10.652;2022-07-23T01:31:23;8.40;;;7.70;;
14394;SDS011;7282;49.204;10.652;2022-07-23T01:33:50;8.40;;;7.60;;
14394;SDS011;7282;49.204;10.652;2022-07-23T01:36:17;9.43;;;8.57;;
14394;SDS011;7282;49.204;10.652;2022-07-23T01:38:43;8.87;;;8.17;;
14394;SDS011;7282;49.204;10.652;2022-07-23T01:41:10;9.00;;;8.10;;
14394;SDS011;7282;49.204;10.652;2022-07-23T01:43:37;10.10;;;9.10;;
14394;SDS011;7282;49.204;10.652;2022-07-23T01:46:04;9.00;;;8.20;;
14394;SDS011;7282;49.204;10.652;2022-07-23T01:48:30;8.83;;;8.03;;
14394;SDS011;7282;49.204;10.652;2022-07-23T01:50:57;9.67;;;8.87;;
14394;SDS011;7282;49.204;10.652;2022-07-23T01:53:24;8.70;;;7.97;;
14394;SDS011;7282;49.204;10.652;2022-07-23T01:55:50;9.07;;;8.20;;
14394;SDS011;7282;49.204;10.652;2022-07-23T01:58:17;9.70;;;8.80;;
14394;SDS011;7282;49.204;10.652;2022-07-23T02:00:44;9.43;;;8.63;;
14394;SDS011;7282;49.204;10.652;2022-07-23T02:03:10;8.83;;;8.03;;
14394;SDS011;7282;49.204;10.652;2022-07-23T02:05:37;8.97;;;8.27;;
14394;SDS011;7282;49.204;10.652;2022-07-23T02:08:04;10.00;;;9.10;;
14394;SDS011;7282;49.204;10.652;2022-07-23T02:10:31;9.57;;;8.77;;
14394;SDS011;7282;49.204;10.652;2022-07-23T02:12:57;11.43;;;10.30;;
14394;SDS011;7282;49.204;10.652;2022-07-23T02:15:24;10.33;;;9.40;;
14394;SDS011;7282;49.204;10.652;2022-07-23T02:17:51;10.00;;;9.20;;
14394;SDS011;7282;49.204;10.652;2022-07-23T02:20:17;10.17;;;9.20;;
14394;SDS011;7282;49.204;10.652;2022-07-23T02:22:44;10.30;;;9.30;;
14394;SDS011;7282;49.204;10.652;2022-07-23T02:25:11;9.80;;;8.90;;
14394;SDS011;7282;49.204;10.652;2022-07-23T02:27:38;10.23;;;9.33;;
14394;SDS011;7282;49.204;10.652;2022-07-23T02:30:05;9.47;;;8.60;;
14394;SDS011;7282;49.204;10.652;2022-07-23T02:32:31;10.33;;;9.20;;
14394;SDS011;7282;49.204;10.652;2022-07-23T02:34:58;9.43;;;8.63;;
14394;SDS011;7282;49.204;10.652;2022-07-23T02:37:25;10.23;;;9.23;;
14394;SDS011;7282;49.204;10.652;2022-07-23T02:39:51;9.20;;;8.30;;
14394;SDS011;7282;49.204;10.652;2022-07-23T02:42:18;8.87;;;8.07;;
14394;SDS011;7282;49.204;10.652;2022-07-23T02:44:45;8.43;;;7.73;;
14394;SDS011;7282;49.204;10.652;2022-07-23T02:47:12;8.53;;;7.73;;
14394;SDS011;7282;49.204;10.652;2022-07-23T02:49:39;8.27;;;7.57;;
14394;SDS011;7282;49.204;10.652;2022-07-23T02:52:05;7.27;;;6.67;;
14394;SDS011;7282;49.204;10.652;2022-07-23T02:54:32;7.80;;;6.33;;
14394;SDS011;7282;49.204;10.652;2022-07-23T02:56:59;7.23;;;5.90;;
14394;SDS011;7282;49.204;10.652;2022-07-23T02:59:25;6.57;;;6.07;;
14394;SDS011;7282;49.204;10.652;2022-07-23T03:01:52;6.43;;;5.17;;
14394;SDS011;7282;49.204;10.652;2022-07-23T03:04:19;6.20;;;5.60;;
14394;SDS011;7282;49.204;10.652;2022-07-23T03:06:45;5.60;;;5.20;;
14394;SDS011;7282;49.204;10.652;2022-07-23T03:09:12;5.30;;;4.90;;
14394;SDS011;7282;49.204;10.652;2022-07-23T03:11:39;5.70;;;5.20;;
14394;SDS011;7282;49.204;10.652;2022-07-23T03:14:06;5.10;;;4.63;;
14394;SDS011;7282;49.204;10.652;2022-07-23T03:16:33;5.40;;;5.00;;
14394;SDS011;7282;49.204;10.652;2022-07-23T03:19:00;6.37;;;5.77;;
14394;SDS011;7282;49.204;10.652;2022-07-23T03:21:27;6.20;;;5.53;;
14394;SDS011;7282;49.204;10.652;2022-07-23T03:23:53;5.73;;;5.23;;
14394;SDS011;7282;49.204;10.652;2022-07-23T03:26:20;7.43;;;5.83;;
14394;SDS011;7282;49.204;10.652;2022-07-23T03:28:47;7.07;;;5.87;;
14394;SDS011;7282;49.204;10.652;2022-07-23T03:31:13;6.30;;;5.80;;
14394;SDS011;7282;49.204;10.652;2022-07-23T03:33:40;6.70;;;6.10;;
14394;SDS011;7282;49.204;10.652;2022-07-23T03:36:07;6.80;;;6.20;;
14394;SDS011;7282;49.204;10.652;2022-07-23T03:38:34;7.00;;;6.30;;
14394;SDS011;7282;49.204;10.652;2022-07-23T03:41:01;7.17;;;5.80;;
14394;SDS011;7282;49.204;10.652;2022-07-23T03:43:27;6.87;;;6.10;;
14394;SDS011;7282;49.204;10.652;2022-07-23T03:45:54;6.37;;;5.87;;
14394;SDS011;7282;49.204;10.652;2022-07-23T03:48:21;6.20;;;5.60;;
14394;SDS011;7282;49.204;10.652;2022-07-23T03:50:47;6.40;;;5.90;;
14394;SDS011;7282;49.204;10.652;2022-07-23T03:53:14;6.70;;;6.10;;
14394;SDS011;7282;49.204;10.652;2022-07-23T03:55:41;6.30;;;5.80;;
14394;SDS011;7282;49.204;10.652;2022-07-23T03:58:08;6.90;;;6.30;;
14394;SDS011;7282;49.204;10.652;2022-07-23T04:00:34;6.10;;;5.60;;
14394;SDS011;7282;49.204;10.652;2022-07-23T04:03:01;5.83;;;5.33;;
14394;SDS011;7282;49.204;10.652;2022-07-23T04:05:28;6.40;;;5.80;;
14394;SDS011;7282;49.204;10.652;2022-07-23T04:07:55;6.03;;;5.53;;
14394;SDS011;7282;49.204;10.652;2022-07-23T04:10:21;6.00;;;5.40;;
14394;SDS011;7282;49.204;10.652;2022-07-23T04:12:48;5.70;;;5.10;;
14394;SDS011;7282;49.204;10.652;2022-07-23T04:15:15;5.60;;;5.10;;
14394;SDS011;7282;49.204;10.652;2022-07-23T04:17:41;6.50;;;5.93;;
14394;SDS011;7282;49.204;10.652;2022-07-23T04:20:10;6.80;;;6.00;;
14394;SDS011;7282;49.204;10.652;2022-07-23T04:22:37;6.27;;;5.77;;
14394;SDS011;7282;49.204;10.652;2022-07-23T04:25:04;5.53;;;5.03;;
14394;SDS011;7282;49.204;10.652;2022-07-23T04:27:31;5.73;;;5.23;;
14394;SDS011;7282;49.204;10.652;2022-07-23T04:29:59;6.10;;;5.50;;
14394;SDS011;7282;49.204;10.652;2022-07-23T04:32:26;6.47;;;5.93;;
14394;SDS011;7282;49.204;10.652;2022-07-23T04:34:52;5.77;;;5.20;;
14394;SDS011;7282;49.204;10.652;2022-07-23T04:37:19;5.27;;;4.87;;
14394;SDS011;7282;49.204;10.652;2022-07-23T04:39:46;5.67;;;5.27;;
14394;SDS011;7282;49.204;10.652;2022-07-23T04:42:13;5.60;;;5.10;;
14394;SDS011;7282;49.204;10.652;2022-07-23T04:44:39;5.77;;;5.03;;
14394;SDS011;7282;49.204;10.652;2022-07-23T04:47:06;5.93;;;5.43;;
14394;SDS011;7282;49.204;10.652;2022-07-23T04:49:33;5.87;;;5.27;;
14394;SDS011;7282;49.204;10.652;2022-07-23T04:51:59;5.70;;;5.20;;
14394;SDS011;7282;49.204;10.652;2022-07-23T04:54:31;5.87;;;5.37;;
14394;SDS011;7282;49.204;10.652;2022-07-23T04:56:55;5.80;;;5.40;;
14394;SDS011;7282;49.204;10.652;2022-07-23T04:59:21;6.33;;;5.83;;
14394;SDS011;7282;49.204;10.652;2022-07-23T05:01:48;5.20;;;4.80;;
14394;SDS011;7282;49.204;10.652;2022-07-23T05:04:15;6.13;;;5.53;;
14394;SDS011;7282;49.204;10.652;2022-07-23T05:06:41;5.80;;;5.30;;
14394;SDS011;7282;49.204;10.652;2022-07-23T05:09:08;5.60;;;5.13;;
14394;SDS011;7282;49.204;10.652;2022-07-23T05:11:35;6.17;;;5.67;;
14394;SDS011;7282;49.204;10.652;2022-07-23T05:14:02;5.80;;;5.30;;
14394;SDS011;7282;49.204;10.652;2022-07-23T05:16:28;6.43;;;5.67;;
14394;SDS011;7282;49.204;10.652;2022-07-23T05:18:55;6.00;;;5.50;;
14394;SDS011;7282;49.204;10.652;2022-07-23T05:21:22;5.83;;;5.33;;
14394;SDS011;7282;49.204;10.652;2022-07-23T05:23:48;6.20;;;5.30;;
14394;SDS011;7282;49.204;10.652;2022-07-23T05:26:15;5.77;;;5.27;;
14394;SDS011;7282;49.204;10.652;2022-07-23T05:28:42;6.57;;;5.83;;
14394;SDS011;7282;49.204;10.652;2022-07-23T05:31:08;5.13;;;4.77;;
14394;SDS011;7282;49.204;10.652;2022-07-23T05:33:35;5.57;;;5.17;;
14394;SDS011;7282;49.204;10.652;2022-07-23T05:36:02;6.00;;;5.50;;
14394;SDS011;7282;49.204;10.652;2022-07-23T05:38:29;5.43;;;5.03;;
14394;SDS011;7282;49.204;10.652;2022-07-23T05:40:56;5.47;;;4.97;;
14394;SDS011;7282;49.204;10.652;2022-07-23T05:43:23;6.10;;;5.60;;
14394;SDS011;7282;49.204;10.652;2022-07-23T05:45:49;5.77;;;5.37;;
14394;SDS011;7282;49.204;10.652;2022-07-23T05:48:16;6.40;;;5.77;;
14394;SDS011;7282;49.204;10.652;2022-07-23T05:50:43;6.53;;;5.93;;
14394;SDS011;7282;49.204;10.652;2022-07-23T05:53:09;5.57;;;5.17;;
14394;SDS011;7282;49.204;10.652;2022-07-23T05:55:36;6.17;;;5.53;;
14394;SDS011;7282;49.204;10.652;2022-07-23T05:58:03;5.53;;;5.13;;
14394;SDS011;7282;49.204;10.652;2022-07-23T06:00:30;5.60;;;5.10;;
14394;SDS011;7282;49.204;10.652;2022-07-23T06:03:01;6.30;;;5.70;;
14394;SDS011;7282;49.204;10.652;2022-07-23T06:05:25;6.27;;;5.67;;
14394;SDS011;7282;49.204;10.652;2022-07-23T06:07:52;6.13;;;5.63;;
14394;SDS011;7282;49.204;10.652;2022-07-23T06:10:19;5.97;;;5.47;;
14394;SDS011;7282;49.204;10.652;2022-07-23T06:12:46;5.67;;;5.27;;
14394;SDS011;7282;49.204;10.652;2022-07-23T06:15:13;6.40;;;5.57;;
14394;SDS011;7282;49.204;10.652;2022-07-23T06:17:40;5.67;;;5.17;;
14394;SDS011;7282;49.204;10.652;2022-07-23T06:20:07;5.70;;;5.20;;
14394;SDS011;7282;49.204;10.652;2022-07-23T06:22:34;6.33;;;5.83;;
14394;SDS011;7282;49.204;10.652;2022-07-23T06:25:01;7.10;;;6.50;;
14394;SDS011;7282;49.204;10.652;2022-07-23T06:27:27;5.90;;;5.40;;
14394;SDS011;7282;49.204;10.652;2022-07-23T06:29:54;6.37;;;5.37;;
14394;SDS011;7282;49.204;10.652;2022-07-23T06:32:21;5.73;;;5.27;;
14394;SDS011;7282;49.204;10.652;2022-07-23T06:34:48;6.70;;;6.10;;
14394;SDS011;7282;49.204;10.652;2022-07-23T06:37:14;5.57;;;5.17;;
14394;SDS011;7282;49.204;10.652;2022-07-23T06:39:41;6.37;;;5.87;;
14394;SDS011;7282;49.204;10.652;2022-07-23T06:42:08;6.53;;;5.93;;
14394;SDS011;7282;49.204;10.652;2022-07-23T06:44:36;5.83;;;5.40;;
14394;SDS011;7282;49.204;10.652;2022-07-23T06:47:03;6.30;;;5.70;;
14394;SDS011;7282;49.204;10.652;2022-07-23T06:49:29;5.70;;;5.20;;
14394;SDS011;7282;49.204;10.652;2022-07-23T06:51:56;6.63;;;6.03;;
14394;SDS011;7282;49.204;10.652;2022-07-23T06:54:23;6.27;;;5.77;;
14394;SDS011;7282;49.204;10.652;2022-07-23T06:56:49;6.80;;;5.90;;
14394;SDS011;7282;49.204;10.652;2022-07-23T06:59:16;7.63;;;5.87;;
14394;SDS011;7282;49.204;10.652;2022-07-23T07:01:43;7.80;;;5.83;;
14394;SDS011;7282;49.204;10.652;2022-07-23T07:04:09;6.23;;;5.73;;
14394;SDS011;7282;49.204;10.652;2022-07-23T07:06:36;6.70;;;6.10;;
14394;SDS011;7282;49.204;10.652;2022-07-23T07:09:03;6.17;;;5.57;;
14394;SDS011;7282;49.204;10.652;2022-07-23T07:11:30;6.87;;;6.23;;
14394;SDS011;7282;49.204;10.652;2022-07-23T07:13:56;7.27;;;6.47;;
14394;SDS011;7282;49.204;10.652;2022-07-23T07:16:23;5.87;;;5.33;;
14394;SDS011;7282;49.204;10.652;2022-07-23T07:18:50;6.37;;;5.87;;
14394;SDS011;7282;49.204;10.652;2022-07-23T07:21:16;6.40;;;5.90;;
14394;SDS011;7282;49.204;10.652;2022-07-23T07:23:43;6.77;;;6.17;;
14394;SDS011;7282;49.204;10.652;2022-07-23T07:26:10;7.40;;;6.70;;
14394;SDS011;7282;49.204;10.652;2022-07-23T07:28:36;6.80;;;6.20;;
14394;SDS011;7282;49.204;10.652;2022-07-23T07:31:03;7.13;;;6.47;;
14394;SDS011;7282;49.204;10.652;2022-07-23T07:33:30;7.90;;;7.20;;
14394;SDS011;7282;49.204;10.652;2022-07-23T07:35:57;7.63;;;7.03;;
14394;SDS011;7282;49.204;10.652;2022-07-23T07:38:24;7.57;;;6.87;;
14394;SDS011;7282;49.204;10.652;2022-07-23T07:40:51;7.83;;;7.17;;
14394;SDS011;7282;49.204;10.652;2022-07-23T07:43:17;8.07;;;7.30;;
14394;SDS011;7282;49.204;10.652;2022-07-23T07:45:44;7.80;;;7.10;;
14394;SDS011;7282;49.204;10.652;2022-07-23T07:48:11;12.83;;;7.90;;
14394;SDS011;7282;49.204;10.652;2022-07-23T07:50:37;7.60;;;6.93;;
14394;SDS011;7282;49.204;10.652;2022-07-23T07:53:04;7.53;;;6.83;;
14394;SDS011;7282;49.204;10.652;2022-07-23T07:55:31;7.70;;;6.77;;
14394;SDS011;7282;49.204;10.652;2022-07-23T07:58:00;8.10;;;7.33;;
14394;SDS011;7282;49.204;10.652;2022-07-23T08:00:27;8.03;;;6.53;;
14394;SDS011;7282;49.204;10.652;2022-07-23T08:02:54;8.53;;;7.33;;
14394;SDS011;7282;49.204;10.652;2022-07-23T08:05:22;7.30;;;6.70;;
14394;SDS011;7282;49.204;10.652;2022-07-23T08:07:49;8.17;;;7.00;;
14394;SDS011;7282;49.204;10.652;2022-07-23T08:10:16;6.67;;;6.07;;
14394;SDS011;7282;49.204;10.652;2022-07-23T08:12:43;7.83;;;7.13;;
14394;SDS011;7282;49.204;10.652;2022-07-23T08:15:12;7.90;;;7.20;;
14394;SDS011;7282;49.204;10.652;2022-07-23T08:17:39;8.47;;;7.77;;
14394;SDS011;7282;49.204;10.652;2022-07-23T08:20:06;7.50;;;6.80;;
14394;SDS011;7282;49.204;10.652;2022-07-23T08:22:43;7.60;;;6.90;;
14394;SDS011;7282;49.204;10.652;2022-07-23T08:25:09;6.93;;;6.23;;
14394;SDS011;7282;49.204;10.652;2022-07-23T08:27:36;6.43;;;5.77;;
14394;SDS011;7282;49.204;10.652;2022-07-23T08:30:03;6.20;;;5.70;;
14394;SDS011;7282;49.204;10.652;2022-07-23T08:32:30;6.77;;;6.03;;
14394;SDS011;7282;49.204;10.652;2022-07-23T08:34:56;9.40;;;7.40;;
14394;SDS011;7282;49.204;10.652;2022-07-23T08:37:23;6.97;;;6.27;;
14394;SDS011;7282;49.204;10.652;2022-07-23T08:39:50;6.40;;;5.80;;
14394;SDS011;7282;49.204;10.652;2022-07-23T08:42:17;6.07;;;5.43;;
14394;SDS011;7282;49.204;10.652;2022-07-23T08:44:45;5.53;;;5.03;;
14394;SDS011;7282;49.204;10.652;2022-07-23T08:47:12;5.77;;;5.27;;
14394;SDS011;7282;49.204;10.652;2022-07-23T08:49:41;5.97;;;5.47;;
14394;SDS011;7282;49.204;10.652;2022-07-23T08:52:08;6.07;;;5.57;;
14394;SDS011;7282;49.204;10.652;2022-07-23T08:54:39;6.10;;;5.60;;
14394;SDS011;7282;49.204;10.652;2022-07-23T08:57:03;5.73;;;5.33;;
14394;SDS011;7282;49.204;10.652;2022-07-23T08:59:30;6.70;;;6.07;;
14394;SDS011;7282;49.204;10.652;2022-07-23T09:01:58;6.07;;;5.57;;
14394;SDS011;7282;49.204;10.652;2022-07-23T09:04:26;6.20;;;5.43;;
14394;SDS011;7282;49.204;10.652;2022-07-23T09:06:52;6.00;;;5.00;;
14394;SDS011;7282;49.204;10.652;2022-07-23T09:09:20;5.80;;;5.30;;
14394;SDS011;7282;49.204;10.652;2022-07-23T09:11:47;6.93;;;6.23;;
14394;SDS011;7282;49.204;10.652;2022-07-23T09:14:14;5.83;;;5.33;;
14394;SDS011;7282;49.204;10.652;2022-07-23T09:16:41;5.77;;;5.27;;
14394;SDS011;7282;49.204;10.652;2022-07-23T09:19:09;6.30;;;5.70;;
14394;SDS011;7282;49.204;10.652;2022-07-23T09:21:38;5.47;;;5.07;;
14394;SDS011;7282;49.204;10.652;2022-07-23T09:24:05;6.00;;;5.50;;
14394;SDS011;7282;49.204;10.652;2022-07-23T09:26:36;5.83;;;5.33;;
14394;SDS011;7282;49.204;10.652;2022-07-23T09:31:41;5.93;;;5.40;;
14394;SDS011;7282;49.204;10.652;2022-07-23T09:34:13;6.00;;;5.40;;
14394;SDS011;7282;49.204;10.652;2022-07-23T09:36:40;6.00;;;5.50;;
14394;SDS011;7282;49.204;10.652;2022-07-23T09:39:08;5.80;;;5.33;;
14394;SDS011;7282;49.204;10.652;2022-07-23T09:41:42;5.87;;;5.30;;
14394;SDS011;7282;49.204;10.652;2022-07-23T09:44:09;5.67;;;5.17;;
14394;SDS011;7282;49.204;10.652;2022-07-23T09:46:37;5.60;;;5.10;;
14394;SDS011;7282;49.204;10.652;2022-07-23T09:49:17;5.60;;;5.10;;
14394;SDS011;7282;49.204;10.652;2022-07-23T09:51:43;5.37;;;4.97;;
14394;SDS011;7282;49.204;10.652;2022-07-23T09:54:20;6.03;;;5.53;;
14394;SDS011;7282;49.204;10.652;2022-07-23T09:56:41;5.70;;;5.20;;
14394;SDS011;7282;49.204;10.652;2022-07-23T09:59:08;5.17;;;4.73;;
14394;SDS011;7282;49.204;10.652;2022-07-23T10:01:37;5.17;;;4.77;;
14394;SDS011;7282;49.204;10.652;2022-07-23T10:04:04;5.73;;;5.23;;
14394;SDS011;7282;49.204;10.652;2022-07-23T10:06:31;5.47;;;4.97;;
14394;SDS011;7282;49.204;10.652;2022-07-23T10:08:58;6.87;;;5.80;;
14394;SDS011;7282;49.204;10.652;2022-07-23T10:11:26;5.87;;;5.30;;
14394;SDS011;7282;49.204;10.652;2022-07-23T10:13:53;6.20;;;5.67;;
14394;SDS011;7282;49.204;10.652;2022-07-23T10:16:28;6.37;;;5.83;;
14394;SDS011;7282;49.204;10.652;2022-07-23T10:18:55;7.20;;;6.23;;
14394;SDS011;7282;49.204;10.652;2022-07-23T10:21:27;6.43;;;5.83;;
14394;SDS011;7282;49.204;10.652;2022-07-23T10:26:48;6.17;;;5.57;;
14394;SDS011;7282;49.204;10.652;2022-07-23T10:31:58;6.40;;;5.83;;
14394;SDS011;7282;49.204;10.652;2022-07-23T10:34:28;6.47;;;5.97;;
14394;SDS011;7282;49.204;10.652;2022-07-23T10:37:01;6.77;;;6.07;;
14394;SDS011;7282;49.204;10.652;2022-07-23T10:39:31;6.30;;;5.80;;
14394;SDS011;7282;49.204;10.652;2022-07-23T10:42:11;5.80;;;5.30;;
14394;SDS011;7282;49.204;10.652;2022-07-23T10:44:39;6.47;;;5.87;;
14394;SDS011;7282;49.204;10.652;2022-07-23T10:47:06;6.13;;;5.53;;
14394;SDS011;7282;49.204;10.652;2022-07-23T10:49:53;6.27;;;5.77;;
14394;SDS011;7282;49.204;10.652;2022-07-23T10:52:21;6.50;;;5.90;;
14394;SDS011;7282;49.204;10.652;2022-07-23T10:54:52;7.23;;;6.63;;
14394;SDS011;7282;49.204;10.652;2022-07-23T10:57:20;7.20;;;6.50;;
14394;SDS011;7282;49.204;10.652;2022-07-23T11:02:33;5.63;;;5.20;;
14394;SDS011;7282;49.204;10.652;2022-07-23T11:05:04;5.87;;;5.37;;
14394;SDS011;7282;49.204;10.652;2022-07-23T11:07:31;5.50;;;5.00;;
14394;SDS011;7282;49.204;10.652;2022-07-23T11:09:58;5.07;;;4.57;;
14394;SDS011;7282;49.204;10.652;2022-07-23T11:15:09;5.17;;;4.70;;
14394;SDS011;7282;49.204;10.652;2022-07-23T11:17:37;5.43;;;5.03;;
14394;SDS011;7282;49.204;10.652;2022-07-23T11:27:50;4.60;;;4.20;;
14394;SDS011;7282;49.204;10.652;2022-07-23T11:35:27;4.57;;;4.17;;
14394;SDS011;7282;49.204;10.652;2022-07-23T11:37:54;5.10;;;4.70;;
14394;SDS011;7282;49.204;10.652;2022-07-23T11:40:24;5.67;;;4.63;;
14394;SDS011;7282;49.204;10.652;2022-07-23T11:42:53;4.73;;;4.27;;
14394;SDS011;7282;49.204;10.652;2022-07-23T11:45:20;5.03;;;4.30;;
14394;SDS011;7282;49.204;10.652;2022-07-23T11:47:47;5.20;;;4.70;;
14394;SDS011;7282;49.204;10.652;2022-07-23T11:50:13;5.37;;;4.60;;
14394;SDS011;7282;49.204;10.652;2022-07-23T11:52:40;6.50;;;5.03;;
14394;SDS011;7282;49.204;10.652;2022-07-23T11:55:08;4.90;;;4.50;;
14394;SDS011;7282;49.204;10.652;2022-07-23T11:57:36;4.97;;;4.57;;
14394;SDS011;7282;49.204;10.652;2022-07-23T12:00:09;5.03;;;4.63;;
14394;SDS011;7282;49.204;10.652;2022-07-23T12:02:32;4.23;;;3.93;;
14394;SDS011;7282;49.204;10.652;2022-07-23T12:04:59;5.30;;;4.90;;
14394;SDS011;7282;49.204;10.652;2022-07-23T12:07:27;4.70;;;4.30;;
14394;SDS011;7282;49.204;10.652;2022-07-23T12:09:54;4.20;;;3.90;;
14394;SDS011;7282;49.204;10.652;2022-07-23T12:12:21;4.40;;;4.10;;
14394;SDS011;7282;49.204;10.652;2022-07-23T12:14:49;4.37;;;3.97;;
14394;SDS011;7282;49.204;10.652;2022-07-23T12:17:16;4.50;;;4.20;;
14394;SDS011;7282;49.204;10.652;2022-07-23T12:19:42;4.13;;;3.83;;
14394;SDS011;7282;49.204;10.652;2022-07-23T12:22:09;4.40;;;4.10;;
14394;SDS011;7282;49.204;10.652;2022-07-23T12:27:22;4.70;;;4.30;;
14394;SDS011;7282;49.204;10.652;2022-07-23T12:29:49;5.30;;;4.87;;
14394;SDS011;7282;49.204;10.652;2022-07-23T12:32:16;5.50;;;5.00;;
14394;SDS011;7282;49.204;10.652;2022-07-23T12:34:43;4.77;;;4.37;;
14394;SDS011;7282;49.204;10.652;2022-07-23T12:37:26;4.93;;;4.53;;
14394;SDS011;7282;49.204;10.652;2022-07-23T12:39:53;4.80;;;4.40;;
14394;SDS011;7282;49.204;10.652;2022-07-23T12:42:20;4.63;;;4.23;;
14394;SDS011;7282;49.204;10.652;2022-07-23T12:45:03;5.47;;;4.97;;
14394;SDS011;7282;49.204;10.652;2022-07-23T12:47:29;5.73;;;5.23;;
14394;SDS011;7282;49.204;10.652;2022-07-23T12:49:56;5.70;;;5.20;;
14394;SDS011;7282;49.204;10.652;2022-07-23T12:52:23;5.33;;;4.93;;
14394;SDS011;7282;49.204;10.652;2022-07-23T12:54:49;5.30;;;4.90;;
14394;SDS011;7282;49.204;10.652;2022-07-23T12:57:16;5.93;;;5.43;;
14394;SDS011;7282;49.204;10.652;2022-07-23T12:59:43;4.97;;;4.57;;
14394;SDS011;7282;49.204;10.652;2022-07-23T13:02:10;5.73;;;5.23;;
14394;SDS011;7282;49.204;10.652;2022-07-23T13:04:37;5.73;;;5.20;;
14394;SDS011;7282;49.204;10.652;2022-07-23T13:07:03;5.13;;;4.73;;
14394;SDS011;7282;49.204;10.652;2022-07-23T13:09:30;5.43;;;5.03;;
14394;SDS011;7282;49.204;10.652;2022-07-23T13:11:58;5.33;;;4.93;;
14394;SDS011;7282;49.204;10.652;2022-07-23T13:14:25;5.60;;;5.10;;
14394;SDS011;7282;49.204;10.652;2022-07-23T13:16:52;5.93;;;5.43;;
14394;SDS011;7282;49.204;10.652;2022-07-23T13:19:19;5.30;;;4.80;;
14394;SDS011;7282;49.204;10.652;2022-07-23T13:21:48;5.30;;;4.90;;
14394;SDS011;7282;49.204;10.652;2022-07-23T13:24:15;5.67;;;5.17;;
14394;SDS011;7282;49.204;10.652;2022-07-23T13:26:42;5.43;;;4.93;;
14394;SDS011;7282;49.204;10.652;2022-07-23T13:29:08;5.20;;;4.73;;
14394;SDS011;7282;49.204;10.652;2022-07-23T13:31:36;5.80;;;5.40;;
14394;SDS011;7282;49.204;10.652;2022-07-23T13:34:03;5.77;;;5.27;;
14394;SDS011;7282;49.204;10.652;2022-07-23T13:36:30;5.80;;;5.30;;
14394;SDS011;7282;49.204;10.652;2022-07-23T13:38:57;5.73;;;5.23;;
14394;SDS011;7282;49.204;10.652;2022-07-23T13:41:23;5.17;;;4.77;;
14394;SDS011;7282;49.204;10.652;2022-07-23T13:43:50;5.10;;;4.70;;
14394;SDS011;7282;49.204;10.652;2022-07-23T13:46:17;5.67;;;5.27;;
14394;SDS011;7282;49.204;10.652;2022-07-23T13:48:43;5.60;;;5.10;;
14394;SDS011;7282;49.204;10.652;2022-07-23T13:51:10;5.83;;;5.33;;
14394;SDS011;7282;49.204;10.652;2022-07-23T13:53:37;5.37;;;4.97;;
14394;SDS011;7282;49.204;10.652;2022-07-23T13:56:03;5.80;;;5.13;;
14394;SDS011;7282;49.204;10.652;2022-07-23T13:58:30;5.37;;;4.87;;
14394;SDS011;7282;49.204;10.652;2022-07-23T14:00:57;5.80;;;5.20;;
14394;SDS011;7282;49.204;10.652;2022-07-23T14:03:24;6.30;;;5.80;;
14394;SDS011;7282;49.204;10.652;2022-07-23T14:05:51;5.40;;;5.00;;
14394;SDS011;7282;49.204;10.652;2022-07-23T14:08:18;5.83;;;5.33;;
14394;SDS011;7282;49.204;10.652;2022-07-23T14:10:45;5.73;;;5.33;;
14394;SDS011;7282;49.204;10.652;2022-07-23T14:13:13;5.67;;;5.27;;
14394;SDS011;7282;49.204;10.652;2022-07-23T14:15:39;6.27;;;5.77;;
14394;SDS011;7282;49.204;10.652;2022-07-23T14:18:06;6.17;;;5.63;;
14394;SDS011;7282;49.204;10.652;2022-07-23T14:20:33;6.70;;;6.10;;
14394;SDS011;7282;49.204;10.652;2022-07-23T14:23:00;6.13;;;5.50;;
14394;SDS011;7282;49.204;10.652;2022-07-23T14:25:27;7.00;;;6.40;;
14394;SDS011;7282;49.204;10.652;2022-07-23T14:27:53;6.30;;;5.80;;
14394;SDS011;7282;49.204;10.652;2022-07-23T14:30:20;6.50;;;5.93;;
14394;SDS011;7282;49.204;10.652;2022-07-23T14:32:49;5.70;;;5.30;;
14394;SDS011;7282;49.204;10.652;2022-07-23T14:35:15;6.27;;;5.70;;
14394;SDS011;7282;49.204;10.652;2022-07-23T14:37:42;6.30;;;5.80;;
14394;SDS011;7282;49.204;10.652;2022-07-23T14:40:09;7.00;;;6.47;;
14394;SDS011;7282;49.204;10.652;2022-07-23T14:42:38;7.23;;;6.63;;
14394;SDS011;7282;49.204;10.652;2022-07-23T14:45:05;7.13;;;6.50;;
14394;SDS011;7282;49.204;10.652;2022-07-23T14:47:32;7.57;;;6.97;;
14394;SDS011;7282;49.204;10.652;2022-07-23T14:49:59;7.00;;;6.40;;
14394;SDS011;7282;49.204;10.652;2022-07-23T14:52:26;7.00;;;6.50;;
14394;SDS011;7282;49.204;10.652;2022-07-23T14:54:52;7.10;;;6.40;;
14394;SDS011;7282;49.204;10.652;2022-07-23T14:57:19;7.83;;;7.13;;
14394;SDS011;7282;49.204;10.652;2022-07-23T14:59:46;6.97;;;6.47;;
14394;SDS011;7282;49.204;10.652;2022-07-23T15:02:12;6.97;;;6.37;;
14394;SDS011;7282;49.204;10.652;2022-07-23T15:04:39;7.27;;;6.67;;
14394;SDS011;7282;49.204;10.652;2022-07-23T15:07:06;7.53;;;6.90;;
14394;SDS011;7282;49.204;10.652;2022-07-23T15:09:33;7.20;;;6.40;;
14394;SDS011;7282;49.204;10.652;2022-07-23T15:11:59;7.17;;;6.47;;
14394;SDS011;7282;49.204;10.652;2022-07-23T15:14:26;8.00;;;7.30;;